Time;durP1;ratioP1;P1;durP2;ratioP2;P2;SDS_P1;SDS_P2;PMS_P1;PMS_P2;Temp;Humidity;BMP_temperature;BMP_pressure;BME280_temperature;BME280_humidity;BME280_pressure;Samples;Min_cycle;Max_cycle;Signal;HPM_P1;HPM_P2
2021/09/03 00:01:37;;;;;;;;;;;;;;;-142.75;94.34;77853.94;5070302;28;19949;-78
2021/09/03 00:04:03;;;;;;;;;;;;;;;-142.75;94.19;77853.94;5072712;28;19992;-77
2021/09/03 00:06:28;;;;;;;;;;;;;;;-142.75;94.70;77848.03;5078968;28;19917;-79
2021/09/03 00:08:54;;;;;;;;;;;;;;;-142.75;94.80;77859.84;5008158;28;19913;-76
2021/09/03 00:11:19;;;;;;;;;;;;;;;-142.75;94.86;77850.00;5070751;28;20366;-78
2021/09/03 00:13:44;;;;;;;;;;;;;;;-142.75;95.03;77846.06;5069914;28;19946;-79
2021/09/03 00:16:09;;;;;;;;;;;;;;;-142.75;94.91;77850.00;5009136;28;20393;-79
2021/09/03 00:18:34;;;;;;;;;;;;;;;-142.75;94.77;77850.00;5071516;28;19913;-78
2021/09/03 00:21:00;;;;;;;;;;;;;;;-142.75;94.81;77838.19;5081358;28;20466;-78
2021/09/03 00:23:25;;;;;;;;;;;;;;;-142.75;94.68;77846.06;4995321;28;20015;-79
2021/09/03 00:25:50;;;;;;;;;;;;;;;-142.75;94.97;77846.06;5003382;28;19967;-78
2021/09/03 00:28:15;;;;;;;;;;;;;;;-142.75;95.02;77846.06;5000115;28;19944;-79
2021/09/03 00:30:40;;;;;;;;;;;;;;;-142.75;95.04;77832.28;5003635;28;20302;-79
2021/09/03 00:33:06;;;;;;;;;;;;;;;-142.75;94.80;77842.13;5013943;28;19921;-80
2021/09/03 00:35:31;;;;;;;;;;;;;;;-142.75;94.71;77842.13;5081558;28;19952;-79
2021/09/03 00:37:56;;;;;;;;;;;;;;;-142.75;94.74;77840.16;5015224;28;19913;-78
2021/09/03 00:40:21;;;;;;;;;;;;;;;-142.75;94.75;77844.09;5009300;28;19965;-78
2021/09/03 00:42:46;;;;;;;;;;;;;;;-142.75;94.75;77834.25;5078526;28;20339;-79
2021/09/03 00:45:12;;;;;;;;;;;;;;;-142.75;94.62;77834.25;5008485;28;19968;-78
2021/09/03 00:47:37;;;;;;;;;;;;;;;-142.75;94.80;77840.16;5084040;28;19924;-79
2021/09/03 00:50:03;;;;;;;;;;;;;;;-142.75;94.86;77842.13;5083762;28;19913;-78
2021/09/03 00:52:29;;;;;;;;;;;;;;;-142.75;95.44;77846.06;5013009;28;20328;-78
2021/09/03 00:54:56;;;;;;;;;;;;;;;-142.75;95.55;77846.06;5070733;28;19920;-78
2021/09/03 00:57:22;;;;;;;;;;;;;;;-142.75;95.70;77836.22;5014959;28;19993;-78
2021/09/03 00:59:47;;;;;;;;;;;;;;;-142.75;95.91;77830.31;5001726;28;19913;-77
2021/09/03 01:02:12;;;;;;;;;;;;;;;-142.75;95.82;77830.31;5081619;28;19914;-78
2021/09/03 01:04:37;;;;;;;;;;;;;;;-142.75;95.79;77838.19;5013206;28;19913;-79
2021/09/03 01:07:03;;;;;;;;;;;;;;;-142.75;95.68;77834.25;5008968;28;19929;-79
2021/09/03 01:09:28;;;;;;;;;;;;;;;-142.75;95.73;77848.03;5013168;28;19913;-79
2021/09/03 01:11:53;;;;;;;;;;;;;;;-142.75;95.75;77853.94;5083412;28;19913;-79
2021/09/03 01:14:19;;;;;;;;;;;;;;;-142.75;95.88;77848.03;5002124;28;19952;-79
2021/09/03 01:16:44;;;;;;;;;;;;;;;-142.75;96.25;77846.06;4996428;28;19914;-79
2021/09/03 01:19:09;;;;;;;;;;;;;;;-142.75;96.06;77850.00;5064822;28;20386;-78
2021/09/03 01:21:35;;;;;;;;;;;;;;;-142.75;96.03;77855.91;5081673;28;19920;-78
2021/09/03 01:24:00;;;;;;;;;;;;;;;-142.75;95.88;77859.84;5075648;28;19913;-77
2021/09/03 01:26:26;;;;;;;;;;;;;;;-142.75;95.57;77867.72;5065904;28;19925;-79
2021/09/03 01:28:51;;;;;;;;;;;;;;;-142.75;95.51;77869.69;4998309;28;19997;-79
2021/09/03 01:31:16;;;;;;;;;;;;;;;-142.75;95.45;77871.66;5002437;28;19913;-78
2021/09/03 01:33:42;;;;;;;;;;;;;;;-142.75;95.73;77879.53;5079054;28;19913;-78
2021/09/03 01:36:07;;;;;;;;;;;;;;;-142.75;96.06;77873.63;5078626;28;19913;-78
2021/09/03 01:38:32;;;;;;;;;;;;;;;-142.75;96.26;77885.44;5078656;28;19913;-78
2021/09/03 01:40:57;;;;;;;;;;;;;;;-142.75;96.44;77889.38;5068524;28;19919;-79
2021/09/03 01:43:22;;;;;;;;;;;;;;;-142.75;96.61;77891.34;5072011;28;19936;-78
2021/09/03 01:45:48;;;;;;;;;;;;;;;-142.75;96.62;77889.38;5006435;28;19919;-78
2021/09/03 01:48:13;;;;;;;;;;;;;;;-142.75;96.55;77891.34;5076497;28;19952;-78
2021/09/03 01:50:38;;;;;;;;;;;;;;;-142.75;96.95;77905.13;5014634;28;19958;-78
2021/09/03 01:53:03;;;;;;;;;;;;;;;-142.75;97.41;77907.09;5015513;28;19932;-77
2021/09/03 01:55:29;;;;;;;;;;;;;;;-142.75;97.62;77901.19;5015760;28;19984;-78
2021/09/03 01:57:54;;;;;;;;;;;;;;;-142.75;97.58;77903.16;5006214;28;19975;-78
2021/09/03 02:00:19;;;;;;;;;;;;;;;-142.75;97.63;77903.16;4997320;28;19967;-78
2021/09/03 02:02:44;;;;;;;;;;;;;;;-142.75;97.98;77905.13;4996453;28;19967;-78
2021/09/03 02:05:10;;;;;;;;;;;;;;;-142.75;98.20;77901.19;4999636;28;19955;-79
2021/09/03 02:07:35;;;;;;;;;;;;;;;-142.75;98.32;77899.22;5001740;28;20004;-79
2021/09/03 02:10:00;;;;;;;;;;;;;;;-142.75;98.17;77897.25;5080759;28;20020;-78
2021/09/03 02:12:26;;;;;;;;;;;;;;;-142.75;98.29;77903.16;5014962;28;19914;-78
2021/09/03 02:14:51;;;;;;;;;;;;;;;-142.75;98.30;77901.19;5003782;28;19967;-79
2021/09/03 02:17:16;;;;;;;;;;;;;;;-142.75;98.33;77897.25;5076254;28;19943;-78
2021/09/03 02:19:42;;;;;;;;;;;;;;;-142.75;98.64;77903.16;5001093;28;19956;-79
2021/09/03 02:22:07;;;;;;;;;;;;;;;-142.75;98.94;77889.38;5002575;28;19996;-78
2021/09/03 02:24:32;;;;;;;;;;;;;;;-142.75;99.09;77889.38;5061902;28;20402;-78
2021/09/03 02:26:57;;;;;;;;;;;;;;;-142.75;99.01;77901.19;5013362;28;20051;-78
2021/09/03 02:29:23;;;;;;;;;;;;;;;-142.75;98.71;77889.38;5071862;28;19914;-77
2021/09/03 02:31:48;;;;;;;;;;;;;;;-142.75;98.45;77889.38;4999314;28;20333;-78
2021/09/03 02:34:13;;;;;;;;;;;;;;;-142.75;98.37;77893.31;5079702;28;19913;-78
2021/09/03 02:36:38;;;;;;;;;;;;;;;-142.75;98.64;77895.28;5009619;28;19914;-79
2021/09/03 02:39:05;;;;;;;;;;;;;;;-142.75;98.76;77905.13;4958692;28;1049462;-78
2021/09/03 02:41:30;;;;;;;;;;;;;;;-142.75;98.87;77893.31;5074823;28;19912;-78
2021/09/03 02:43:55;;;;;;;;;;;;;;;-142.75;99.44;77899.22;5005965;28;20050;-78
2021/09/03 02:46:21;;;;;;;;;;;;;;;-142.75;99.66;77891.34;5072386;28;19940;-78
2021/09/03 02:48:46;;;;;;;;;;;;;;;-142.75;99.93;77877.56;5077114;28;20286;-78
2021/09/03 02:51:11;;;;;;;;;;;;;;;-142.75;100.00;77879.53;5001330;28;20302;-77
2021/09/03 02:53:36;;;;;;;;;;;;;;;-142.75;100.00;77895.28;4996181;28;19917;-78
2021/09/03 02:56:02;;;;;;;;;;;;;;;-142.75;99.89;77905.13;5063494;28;19914;-78
2021/09/03 02:58:27;;;;;;;;;;;;;;;-142.75;99.62;77903.16;4998685;28;19913;-78
2021/09/03 03:00:52;;;;;;;;;;;;;;;-142.75;99.57;77907.09;5072632;28;19922;-77
2021/09/03 03:03:17;;;;;;;;;;;;;;;-142.75;99.50;77907.09;5065893;28;19914;-77
2021/09/03 03:05:42;;;;;;;;;;;;;;;-142.75;99.16;77920.91;5080785;28;20013;-77
2021/09/03 03:08:08;;;;;;;;;;;;;;;-142.75;99.18;77913.03;5071375;28;19917;-78
2021/09/03 03:10:33;;;;;;;;;;;;;;;-142.75;99.01;77911.06;4992945;28;19914;-77
2021/09/03 03:12:58;;;;;;;;;;;;;;;-142.75;98.76;77915.00;5065858;28;20409;-78
2021/09/03 03:15:24;;;;;;;;;;;;;;;-142.75;98.74;77920.91;4996702;28;19919;-78
2021/09/03 03:17:49;;;;;;;;;;;;;;;-142.75;98.63;77915.00;4995482;28;19917;-78
2021/09/03 03:20:16;;;;;;;;;;;;;;;-142.75;98.71;77920.91;4998349;28;19964;-77
2021/09/03 03:22:42;;;;;;;;;;;;;;;-142.75;98.88;77915.00;5005581;28;20005;-79
2021/09/03 03:25:08;;;;;;;;;;;;;;;-142.75;98.95;77911.06;5005953;28;19921;-77
2021/09/03 03:27:33;;;;;;;;;;;;;;;-142.75;98.88;77909.06;5001771;28;19917;-77
2021/09/03 03:29:58;;;;;;;;;;;;;;;-142.75;99.12;77911.06;5011871;28;19920;-77
2021/09/03 03:32:23;;;;;;;;;;;;;;;-142.75;99.01;77913.03;5073193;28;20293;-78
2021/09/03 03:34:48;;;;;;;;;;;;;;;-142.75;98.89;77918.94;5061323;28;19935;-77
2021/09/03 03:37:14;;;;;;;;;;;;;;;-142.75;98.87;77922.88;5004700;28;19913;-77
2021/09/03 03:39:39;;;;;;;;;;;;;;;-142.75;98.79;77926.81;5068476;28;20002;-77
2021/09/03 03:42:04;;;;;;;;;;;;;;;-142.75;99.13;77926.81;4993859;28;19913;-78
2021/09/03 03:44:29;;;;;;;;;;;;;;;-142.75;99.48;77926.81;5072412;28;20392;-77
2021/09/03 03:46:54;;;;;;;;;;;;;;;-142.75;99.50;77924.84;5010816;28;20435;-78
2021/09/03 03:49:20;;;;;;;;;;;;;;;-142.75;99.90;77928.78;4998964;28;20008;-78
2021/09/03 03:51:45;;;;;;;;;;;;;;;-142.75;100.00;77928.78;5009648;28;19921;-77
2021/09/03 03:54:10;;;;;;;;;;;;;;;-142.75;100.00;77926.81;5068742;28;19924;-77
2021/09/03 03:56:35;;;;;;;;;;;;;;;-142.75;100.00;77928.78;5066359;28;19956;-78
2021/09/03 03:59:00;;;;;;;;;;;;;;;-142.75;100.00;77920.91;4999195;28;20008;-78
2021/09/03 04:01:25;;;;;;;;;;;;;;;-142.75;100.00;77913.03;4996839;28;19914;-78
2021/09/03 04:03:51;;;;;;;;;;;;;;;-142.75;100.00;77903.16;5000150;28;19913;-78
2021/09/03 04:06:16;;;;;;;;;;;;;;;-142.75;100.00;77913.03;5073330;28;19918;-78
2021/09/03 04:08:41;;;;;;;;;;;;;;;-142.75;100.00;77913.03;5071845;28;20426;-78
2021/09/03 04:11:06;;;;;;;;;;;;;;;-142.75;100.00;77913.03;5009754;28;19914;-78
2021/09/03 04:13:31;;;;;;;;;;;;;;;-142.75;100.00;77916.97;5073848;28;19912;-78
2021/09/03 04:15:57;;;;;;;;;;;;;;;-142.75;100.00;77913.03;5000376;28;20272;-78
2021/09/03 04:18:22;;;;;;;;;;;;;;;-142.75;100.00;77909.06;5001213;28;20529;-77
2021/09/03 04:20:47;;;;;;;;;;;;;;;-142.75;100.00;77911.06;4998957;28;19922;-77
2021/09/03 04:23:13;;;;;;;;;;;;;;;-142.75;100.00;77907.09;5077760;28;19913;-78
2021/09/03 04:25:38;;;;;;;;;;;;;;;-142.75;100.00;77891.34;4991020;28;19920;-78
2021/09/03 04:28:03;;;;;;;;;;;;;;;-142.75;100.00;77895.28;5057594;28;19914;-77
2021/09/03 04:30:29;;;;;;;;;;;;;;;-142.75;100.00;77885.44;5064411;28;19913;-78
2021/09/03 04:32:54;;;;;;;;;;;;;;;-142.75;100.00;77895.28;5000022;28;19921;-78
2021/09/03 04:35:19;;;;;;;;;;;;;;;-142.75;100.00;77895.28;5078147;28;19913;-78
2021/09/03 04:37:45;;;;;;;;;;;;;;;-142.75;100.00;77893.31;5071330;28;20347;-78
2021/09/03 04:40:10;;;;;;;;;;;;;;;-142.75;100.00;77895.28;5061616;22;20922;-75
2021/09/03 04:42:36;;;;;;;;;;;;;;;-142.75;100.00;77897.25;5034788;28;19919;-75
2021/09/03 04:45:01;;;;;;;;;;;;;;;-142.75;100.00;77891.34;5035690;28;19999;-76
2021/09/03 04:47:26;;;;;;;;;;;;;;;-142.75;100.00;77887.41;4969372;28;19925;-75
2021/09/03 04:49:51;;;;;;;;;;;;;;;-142.75;100.00;77885.44;4981573;28;20014;-75
2021/09/03 04:52:16;;;;;;;;;;;;;;;-142.75;100.00;77893.31;5056000;28;19954;-75
2021/09/03 04:54:42;;;;;;;;;;;;;;;-142.75;100.00;77895.28;4988710;28;19922;-75
2021/09/03 04:57:07;;;;;;;;;;;;;;;-142.75;100.00;77887.41;4988650;28;19966;-76
2021/09/03 04:59:34;;;;;;;;;;;;;;;-142.75;100.00;77891.34;4988656;28;20449;-75
2021/09/03 05:01:59;;;;;;;;;;;;;;;-142.75;100.00;77893.31;4988439;28;19953;-75
2021/09/03 05:04:24;;;;;;;;;;;;;;;-142.75;100.00;77885.44;4988771;28;19952;-76
2021/09/03 05:06:49;;;;;;;;;;;;;;;-142.75;100.00;77881.50;5048702;28;20016;-76
2021/09/03 05:09:15;;;;;;;;;;;;;;;-142.75;100.00;77883.47;4969211;28;19940;-75
2021/09/03 05:11:40;;;;;;;;;;;;;;;-142.75;100.00;77879.53;4968960;28;19934;-76
2021/09/03 05:14:05;;;;;;;;;;;;;;;-142.75;100.00;77877.56;5037015;28;19914;-76
2021/09/03 05:16:30;;;;;;;;;;;;;;;-142.75;100.00;77873.63;5039775;28;19918;-75
2021/09/03 05:18:55;;;;;;;;;;;;;;;-142.75;100.00;77869.69;5039668;28;20291;-76
2021/09/03 05:21:20;;;;;;;;;;;;;;;-142.75;100.00;77867.72;5039451;28;19959;-76
2021/09/03 05:23:46;;;;;;;;;;;;;;;-142.75;100.00;77861.81;4972442;28;19958;-76
2021/09/03 05:26:11;;;;;;;;;;;;;;;-142.75;100.00;77857.88;5039490;28;19988;-76
2021/09/03 05:28:38;;;;;;;;;;;;;;;-142.75;100.00;77850.00;4972291;28;20307;-76
2021/09/03 05:31:03;;;;;;;;;;;;;;;-142.75;100.00;77842.13;4972262;28;20260;-75
2021/09/03 05:33:29;;;;;;;;;;;;;;;-142.75;100.00;77840.16;4972415;28;20020;-75
2021/09/03 05:35:54;;;;;;;;;;;;;;;-142.75;100.00;77824.41;4972528;28;19959;-75
2021/09/03 05:38:19;;;;;;;;;;;;;;;-142.75;100.00;77814.56;4972611;28;19960;-76
2021/09/03 05:40:45;;;;;;;;;;;;;;;-142.75;100.00;77783.06;4976568;28;19997;-77
2021/09/03 05:43:10;;;;;;;;;;;;;;;-142.75;100.00;77753.53;5054016;28;19921;-76
2021/09/03 05:45:36;;;;;;;;;;;;;;;-142.75;100.00;77722.00;5055381;28;19918;-75
2021/09/03 05:48:02;;;;;;;;;;;;;;;-142.75;100.00;77692.47;4972175;28;19967;-75
2021/09/03 05:50:28;;;;;;;;;;;;;;;-142.75;100.00;77659.00;4978054;28;19974;-77
2021/09/03 05:52:54;;;;;;;;;;;;;;;-142.75;100.00;77625.53;5044962;28;19914;-76
2021/09/03 05:55:19;;;;;;;;;;;;;;;-142.75;100.00;77576.31;4972398;28;19914;-76
2021/09/03 05:57:44;;;;;;;;;;;;;;;-142.75;100.00;77531.03;4980830;28;19914;-76
2021/09/03 06:00:10;;;;;;;;;;;;;;;-142.75;99.25;77479.84;4978836;28;19913;-76
2021/09/03 06:02:35;;;;;;;;;;;;;;;-142.75;96.00;77438.47;4972785;28;20299;-76
2021/09/03 06:05:00;;;;;;;;;;;;;;;-142.75;92.65;77393.19;5039565;28;19922;-76
2021/09/03 06:07:26;;;;;;;;;;;;;;;-142.75;89.24;77349.88;5039361;28;19918;-75
2021/09/03 06:09:51;;;;;;;;;;;;;;;-142.75;86.77;77294.75;5039098;28;19914;-76
2021/09/03 06:12:16;;;;;;;;;;;;;;;-142.75;84.65;77271.13;4971450;28;19921;-75
2021/09/03 06:14:41;;;;;;;;;;;;;;;-142.75;83.43;77239.63;4971261;28;20295;-75
2021/09/03 06:17:06;;;;;;;;;;;;;;;-142.75;82.34;77192.38;4972524;28;20059;-76
2021/09/03 06:19:31;;;;;;;;;;;;;;;-142.75;79.81;77137.25;4990020;28;19921;-76
2021/09/03 06:21:59;;;;;;;;;;;;;;;-142.75;77.71;77090.00;5058321;28;20375;-75
2021/09/03 06:24:28;;;;;;;;;;;;;;;-142.75;75.18;77038.81;4990649;28;19913;-76
2021/09/03 06:26:53;;;;;;;;;;;;;;;-142.75;72.75;76979.75;5057144;28;19926;-76
2021/09/03 06:30:01;;;;;;;;;;;;;;;-142.75;69.59;76940.38;4991055;28;19914;-77
2021/09/03 06:32:14;;;;;;;;;;;;;;;-142.75;67.47;76889.19;4981368;28;19967;-76
2021/09/03 06:34:40;;;;;;;;;;;;;;;-142.75;67.21;76873.44;4971278;28;19914;-75
2021/09/03 06:37:06;;;;;;;;;;;;;;;-142.75;66.88;76883.28;4971543;28;19967;-76
2021/09/03 06:39:34;;;;;;;;;;;;;;;-142.75;66.84;76869.50;4973960;28;20600;-75
2021/09/03 06:42:00;;;;;;;;;;;;;;;-142.75;66.69;76839.97;5037934;28;20000;-75
2021/09/03 06:44:25;;;;;;;;;;;;;;;-142.75;64.52;76786.84;4971422;28;19921;-75
2021/09/03 06:46:50;;;;;;;;;;;;;;;-142.75;64.23;76777.00;4971138;28;19936;-75
2021/09/03 06:49:15;;;;;;;;;;;;;;;-142.75;62.53;76757.31;4975269;28;19920;-75
2021/09/03 06:51:40;;;;;;;;;;;;;;;-142.75;61.89;76725.81;5037707;28;19972;-75
2021/09/03 06:54:06;;;;;;;;;;;;;;;-142.75;60.97;76725.81;4989285;28;19948;-77
2021/09/03 06:56:31;;;;;;;;;;;;;;;-142.75;60.48;76694.31;4981327;28;19949;-75
2021/09/03 06:58:57;;;;;;;;;;;;;;;-142.75;59.86;76647.06;5053922;28;19921;-76
2021/09/03 07:01:23;;;;;;;;;;;;;;;-142.75;58.42;76668.72;4979660;28;20497;-76
2021/09/03 07:03:48;;;;;;;;;;;;;;;-142.75;60.18;76629.34;5049539;28;20009;-75
2021/09/03 07:06:13;;;;;;;;;;;;;;;-142.75;58.05;76536.84;4983304;28;19918;-76
2021/09/03 07:08:38;;;;;;;;;;;;;;;-142.75;55.53;76515.19;4977914;28;20310;-75
2021/09/03 07:11:03;;;;;;;;;;;;;;;-142.75;54.70;76495.50;4988048;28;19936;-76
2021/09/03 07:13:29;;;;;;;;;;;;;;;-142.75;54.50;76532.88;4980750;28;19940;-76
2021/09/03 07:15:54;;;;;;;;;;;;;;;-142.75;55.81;76489.59;4971490;28;19918;-76
2021/09/03 07:18:19;;;;;;;;;;;;;;;-142.75;53.51;76410.84;4979966;28;19921;-77
2021/09/03 07:20:44;;;;;;;;;;;;;;;-142.75;51.67;76332.13;4989582;28;20391;-76
2021/09/03 07:23:09;;;;;;;;;;;;;;;-142.75;51.88;76332.13;4989212;28;19950;-75
2021/09/03 07:25:34;;;;;;;;;;;;;;;-142.75;52.37;76294.72;4989476;28;19913;-75
2021/09/03 07:28:00;;;;;;;;;;;;;;;-142.75;50.82;76286.84;4989739;28;20016;-75
2021/09/03 07:30:25;;;;;;;;;;;;;;;-142.75;49.67;76259.28;4989463;28;19917;-75
2021/09/03 07:32:50;;;;;;;;;;;;;;;-142.75;50.71;76273.06;4989210;28;20383;-76
2021/09/03 07:35:16;;;;;;;;;;;;;;;-142.75;50.67;76172.69;4989044;28;20436;-76
2021/09/03 07:37:41;;;;;;;;;;;;;;;-142.75;48.36;76072.31;4981240;28;19925;-75
2021/09/03 07:40:07;;;;;;;;;;;;;;;-142.75;46.88;76027.03;4969190;28;19922;-76
2021/09/03 07:42:33;;;;;;;;;;;;;;;-142.75;45.18;75991.59;5035888;28;19919;-76
2021/09/03 07:44:58;;;;;;;;;;;;;;;-142.75;46.02;75987.66;4969815;28;20288;-75
2021/09/03 07:47:23;;;;;;;;;;;;;;;-142.75;45.74;75956.19;5052036;28;20406;-76
2021/09/03 07:49:49;;;;;;;;;;;;;;;-142.75;45.08;75934.53;4988869;28;20790;-76
2021/09/03 07:52:14;;;;;;;;;;;;;;;-142.75;45.33;75932.56;5055487;28;19926;-77
2021/09/03 07:54:39;;;;;;;;;;;;;;;-142.75;44.76;75962.09;4988810;28;19922;-76
2021/09/03 07:57:04;;;;;;;;;;;;;;;-142.75;43.81;75928.63;5055548;28;19929;-77
2021/09/03 07:59:29;;;;;;;;;;;;;;;-142.75;43.94;75950.28;4988710;28;20675;-76
2021/09/03 08:01:55;;;;;;;;;;;;;;;-142.75;45.71;75983.72;4978073;28;19921;-75
2021/09/03 08:04:20;;;;;;;;;;;;;;;-142.75;46.92;76038.84;4969585;28;19940;-76
2021/09/03 08:06:45;;;;;;;;;;;;;;;-142.75;46.69;75967.97;4969242;28;19922;-76
2021/09/03 08:09:10;;;;;;;;;;;;;;;-142.75;44.19;75905.00;4969321;28;19918;-77
2021/09/03 08:11:35;;;;;;;;;;;;;;;-142.75;46.41;76032.94;5044798;28;19997;-76
2021/09/03 08:14:00;;;;;;;;;;;;;;;-142.75;46.52;75981.75;5036196;28;19922;-77
2021/09/03 08:16:26;;;;;;;;;;;;;;;-142.75;46.41;76023.09;5034266;28;20294;-75
2021/09/03 08:18:51;;;;;;;;;;;;;;;-142.75;46.99;75910.91;4984029;28;19959;-76
2021/09/03 08:21:16;;;;;;;;;;;;;;;-142.75;45.79;75969.94;5042364;28;19914;-77
2021/09/03 08:23:41;;;;;;;;;;;;;;;-142.75;44.51;75975.84;5047242;28;19914;-76
2021/09/03 08:26:06;;;;;;;;;;;;;;;-142.75;44.40;75820.38;4984579;28;19914;-75
2021/09/03 08:28:32;;;;;;;;;;;;;;;-142.75;43.43;75747.56;4988577;28;20363;-76
2021/09/03 08:30:57;;;;;;;;;;;;;;;-142.75;42.40;75857.78;4987634;28;19978;-75
2021/09/03 08:33:22;;;;;;;;;;;;;;;-142.75;44.54;75869.56;5053874;28;20290;-76
2021/09/03 08:35:47;;;;;;;;;;;;;;;-142.75;43.71;75840.06;5055310;28;19932;-77
2021/09/03 08:38:12;;;;;;;;;;;;;;;-142.75;44.13;75784.94;4988217;28;19959;-75
2021/09/03 08:40:38;;;;;;;;;;;;;;;-142.75;42.00;75698.34;5038919;28;19993;-75
2021/09/03 08:43:03;;;;;;;;;;;;;;;-142.75;40.65;75556.66;5034650;28;19914;-76
2021/09/03 08:45:29;;;;;;;;;;;;;;;-142.75;39.25;75472.03;4968526;28;20360;-76
2021/09/03 08:47:54;;;;;;;;;;;;;;;-142.75;37.03;75428.75;4968671;28;19918;-75
2021/09/03 08:50:19;;;;;;;;;;;;;;;-142.75;37.89;75405.13;4970745;28;19914;-76
2021/09/03 08:52:45;;;;;;;;;;;;;;;-142.75;36.58;75344.13;4991137;28;20503;-77
2021/09/03 08:55:11;;;;;;;;;;;;;;;-142.75;35.96;75296.88;4991363;28;19917;-76
2021/09/03 08:57:37;;;;;;;;;;;;;;;-142.75;36.19;75259.50;4991635;28;19966;-76
2021/09/03 09:00:09;;;;;;;;;;;;;;;-142.75;35.80;75196.53;4991559;28;19914;-76
2021/09/03 09:02:34;;;;;;;;;;;;;;;-142.75;35.52;75239.81;5059772;28;20000;-76
2021/09/03 09:04:59;;;;;;;;;;;;;;;-142.75;35.49;75267.38;4992074;28;20114;-76
2021/09/03 09:07:26;;;;;;;;;;;;;;;-142.75;37.16;75413.00;5057535;28;19920;-77
2021/09/03 09:09:51;;;;;;;;;;;;;;;-142.75;36.86;75344.13;4970560;28;20342;-76
2021/09/03 09:12:17;;;;;;;;;;;;;;;-142.75;36.94;75334.28;5038455;28;19960;-76
2021/09/03 09:14:58;;;;;;;;;;;;;;;-142.75;36.21;75489.75;4972390;28;19914;-76
2021/09/03 09:17:28;;;;;;;;;;;;;;;-142.75;38.67;75474.00;5040766;28;19917;-76
2021/09/03 09:19:53;;;;;;;;;;;;;;;-142.75;36.19;75334.28;4987193;28;20440;-76
2021/09/03 09:22:18;;;;;;;;;;;;;;;-142.75;36.08;75389.38;5042343;28;19913;-77
2021/09/03 09:24:43;;;;;;;;;;;;;;;-142.75;37.38;75361.84;4991858;28;19914;-74
2021/09/03 09:27:08;;;;;;;;;;;;;;;-142.75;36.67;75401.19;4979673;28;19961;-73
2021/09/03 09:29:37;;;;;;;;;;;;;;;-142.75;37.84;75456.28;4980521;28;19914;-73
2021/09/03 09:32:03;;;;;;;;;;;;;;;-142.75;35.88;75438.56;5039060;28;19933;-73
2021/09/03 09:34:29;;;;;;;;;;;;;;;-142.75;36.65;75385.44;4974975;28;20328;-75
2021/09/03 09:36:55;;;;;;;;;;;;;;;-142.75;35.47;75434.66;4974929;28;19960;-74
2021/09/03 09:39:22;;;;;;;;;;;;;;;-142.75;36.90;75377.56;5039203;28;19918;-74
2021/09/03 09:41:56;;;;;;;;;;;;;;;-142.75;35.47;75346.09;4971765;28;20407;-74
2021/09/03 09:44:31;;;;;;;;;;;;;;;-142.75;36.57;75521.22;4988859;28;20410;-73
2021/09/03 09:47:12;;;;;;;;;;;;;;;-142.75;39.11;75674.72;5053797;28;19914;-73
2021/09/03 09:49:37;;;;;;;;;;;;;;;-142.75;39.36;75680.63;4976990;28;19937;-74
2021/09/03 09:52:02;;;;;;;;;;;;;;;-142.75;39.65;75586.19;4980061;28;20375;-74
2021/09/03 09:54:28;;;;;;;;;;;;;;;-142.75;37.63;75395.28;5058492;28;19918;-74
2021/09/03 09:56:54;;;;;;;;;;;;;;;-142.75;35.39;75257.53;4991169;28;20309;-75
2021/09/03 09:59:21;;;;;;;;;;;;;;;-142.75;35.88;75342.16;4991292;28;19921;-74
2021/09/03 10:01:50;;;;;;;;;;;;;;;-142.75;36.61;75350.03;4989579;28;19914;-74
2021/09/03 10:04:17;;;;;;;;;;;;;;;-142.75;35.42;75220.16;4991212;28;19956;-74
2021/09/03 10:06:43;;;;;;;;;;;;;;;-142.75;34.25;75149.31;5058138;28;19920;-75
2021/09/03 10:09:10;;;;;;;;;;;;;;;-142.75;33.91;75117.81;4990888;28;19961;-73
2021/09/03 10:11:36;;;;;;;;;;;;;;;-142.75;33.83;75019.44;4990745;28;19917;-74
2021/09/03 10:14:02;;;;;;;;;;;;;;;-142.75;33.38;75043.03;5058341;28;20379;-74
2021/09/03 10:16:27;;;;;;;;;;;;;;;-142.75;33.14;75003.69;4990988;28;19925;-73
2021/09/03 10:18:54;;;;;;;;;;;;;;;-142.75;33.45;75033.22;4975892;28;19914;-74
2021/09/03 10:21:21;;;;;;;;;;;;;;;-142.75;32.36;75041.09;4971414;28;19921;-73
2021/09/03 10:23:52;;;;;;;;;;;;;;;-142.75;33.43;75045.00;4971502;28;19964;-74
2021/09/03 10:26:20;;;;;;;;;;;;;;;-142.75;32.37;74972.22;4971513;28;19914;-74
2021/09/03 10:28:45;;;;;;;;;;;;;;;-142.75;33.26;75206.38;4971660;28;19914;-74
2021/09/03 10:31:10;;;;;;;;;;;;;;;-142.75;36.35;75416.94;4982094;28;19917;-73
2021/09/03 10:33:36;;;;;;;;;;;;;;;-142.75;35.08;75367.72;4971429;28;19914;-74
2021/09/03 10:36:02;;;;;;;;;;;;;;;-142.75;37.95;75413.00;4974291;28;20306;-74
2021/09/03 10:38:31;;;;;;;;;;;;;;;-142.75;35.59;75216.22;4990617;28;20375;-74
2021/09/03 10:40:57;;;;;;;;;;;;;;;-142.75;33.94;75149.31;5012963;22;19921;-79
2021/09/03 10:43:39;;;;;;;;;;;;;;;-142.75;33.93;75363.78;4992968;28;20106;-78
2021/09/03 10:46:05;;;;;;;;;;;;;;;-142.75;37.54;75684.56;4993166;28;21461;-77
2021/09/03 10:48:33;;;;;;;;;;;;;;;-142.75;38.72;75527.13;4996246;28;19921;-79
2021/09/03 10:50:59;;;;;;;;;;;;;;;-142.75;36.16;75369.69;4999755;28;20550;-78
2021/09/03 10:53:24;;;;;;;;;;;;;;;-142.75;35.21;75365.75;4999797;28;19996;-78
2021/09/03 10:55:49;;;;;;;;;;;;;;;-142.75;37.15;75283.13;5003104;28;19951;-78
2021/09/03 10:58:33;;;;;;;;;;;;;;;-142.75;34.97;75328.38;5006363;28;19921;-78
2021/09/03 11:01:10;;;;;;;;;;;;;;;-142.75;36.19;75263.44;4999560;28;19975;-78
2021/09/03 11:03:52;;;;;;;;;;;;;;;-142.75;36.32;75416.94;5074595;28;19917;-78
2021/09/03 11:06:23;;;;;;;;;;;;;;;-142.75;36.10;75253.59;5073320;28;20313;-78
2021/09/03 11:08:49;;;;;;;;;;;;;;;-142.75;35.93;75448.41;5005192;28;19964;-78
2021/09/03 11:11:32;;;;;;;;;;;;;;;-142.75;38.15;75481.88;5067415;28;19929;-78
2021/09/03 11:14:04;;;;;;;;;;;;;;;-142.75;37.14;75346.09;5007353;28;19918;-79
2021/09/03 11:16:31;;;;;;;;;;;;;;;-142.75;35.08;75322.47;5002051;28;19918;-79
2021/09/03 11:19:00;;;;;;;;;;;;;;;-142.75;36.65;75279.19;5078227;28;20004;-79
2021/09/03 11:21:29;;;;;;;;;;;;;;;-142.75;34.10;75174.88;5000639;28;19959;-78
2021/09/03 11:23:54;;;;;;;;;;;;;;;-142.75;36.82;75540.91;5000329;28;19918;-78
2021/09/03 11:26:19;;;;;;;;;;;;;;;-142.75;38.08;75456.28;5071433;28;19958;-79
2021/09/03 11:28:45;;;;;;;;;;;;;;;-142.75;36.92;75267.38;5065318;28;20383;-80
2021/09/03 11:31:10;;;;;;;;;;;;;;;-142.75;35.87;75259.50;5002583;28;19960;-79
2021/09/03 11:33:35;;;;;;;;;;;;;;;-142.75;35.03;75277.22;5006452;28;19913;-79
2021/09/03 11:36:01;;;;;;;;;;;;;;;-142.75;37.98;75430.72;5003348;28;19935;-78
2021/09/03 11:38:26;;;;;;;;;;;;;;;-142.75;38.20;75580.28;5077048;28;19913;-79
2021/09/03 11:40:51;;;;;;;;;;;;;;;-142.75;38.93;75519.25;5078871;28;19920;-79
2021/09/03 11:43:19;;;;;;;;;;;;;;;-142.75;38.79;75499.59;5062896;28;19934;-78
2021/09/03 11:45:45;;;;;;;;;;;;;;;-142.75;39.14;75574.38;5071682;28;19970;-78
2021/09/03 11:48:11;;;;;;;;;;;;;;;-142.75;39.49;75544.84;5067820;28;19912;-79
2021/09/03 11:50:38;;;;;;;;;;;;;;;-142.75;39.23;75531.06;5005363;28;19920;-79
2021/09/03 11:53:05;;;;;;;;;;;;;;;-142.75;40.13;75621.59;5000546;28;19932;-79
2021/09/03 11:55:34;;;;;;;;;;;;;;;-142.75;40.42;75588.16;5066833;28;19912;-79
2021/09/03 11:58:07;;;;;;;;;;;;;;;-142.75;39.92;75540.91;5072078;28;19916;-80
2021/09/03 12:00:43;;;;;;;;;;;;;;;-142.75;41.65;75609.78;5064818;28;19955;-79
2021/09/03 12:03:10;;;;;;;;;;;;;;;-142.75;42.20;75609.78;5070743;28;19917;-79
2021/09/03 12:05:39;;;;;;;;;;;;;;;-142.75;42.53;75617.66;4998493;28;20012;-76
2021/09/03 12:08:05;;;;;;;;;;;;;;;-142.75;42.41;75834.16;5002427;28;20310;-78
2021/09/03 12:10:32;;;;;;;;;;;;;;;-142.75;43.87;75810.53;5002894;28;19921;-79
2021/09/03 12:12:57;;;;;;;;;;;;;;;-142.75;43.94;75838.09;5004543;28;19960;-78
2021/09/03 12:15:26;;;;;;;;;;;;;;;-142.75;44.52;75822.34;5002208;28;19929;-80
2021/09/03 12:17:51;;;;;;;;;;;;;;;-142.75;43.92;75798.72;5079683;28;19921;-80
2021/09/03 12:20:17;;;;;;;;;;;;;;;-142.75;43.94;75739.69;4998432;28;19920;-79